Time;durP1;ratioP1;P1;durP2;ratioP2;P2;SDS_P1;SDS_P2;PMS_P1;PMS_P2;Temp;Humidity;BMP_temperature;BMP_pressure;BME280_temperature;BME280_humidity;BME280_pressure;Samples;Min_cycle;Max_cycle;Signal;HPM_P1;HPM_P2
2022/01/30 00:01:46;;;;;;;20.60;12.05;;;;;;;;;;4998783;28;20049;-82
2022/01/30 00:04:12;;;;;;;21.88;13.00;;;;;;;;;;5013870;28;20417;-75
2022/01/30 00:06:39;;;;;;;24.27;12.10;;;;;;;;;;5019123;28;20704;-76
2022/01/30 00:09:09;;;;;;;23.13;13.43;;;;;;;;;;5014762;28;20045;-82
2022/01/30 00:11:38;;;;;;;19.17;12.80;;;;;;;;;;5016082;28;20159;-82
2022/01/30 00:14:06;;;;;;;19.58;12.40;;;;;;;;;;5015612;28;20083;-76
2022/01/30 00:16:36;;;;;;;24.33;13.95;;;;;;;;;;5017413;28;20259;-68
2022/01/30 00:21:42;;;;;;;20.98;14.18;;;;;;;;;;4997337;28;20680;-83
2022/01/30 00:24:33;;;;;;;21.08;14.20;;;;;;;;;;4999052;28;20049;-82
2022/01/30 00:27:00;;;;;;;25.80;13.98;;;;;;;;;;5019714;28;20114;-68
2022/01/30 00:29:26;;;;;;;26.65;14.38;;;;;;;;;;5014868;28;20437;-77
2022/01/30 00:31:52;;;;;;;23.15;14.38;;;;;;;;;;5020403;28;20093;-77
2022/01/30 00:34:19;;;;;;;24.25;14.93;;;;;;;;;;5011108;28;20069;-76
2022/01/30 00:36:45;;;;;;;22.38;13.85;;;;;;;;;;5015918;28;20053;-81
2022/01/30 00:39:11;;;;;;;25.60;14.10;;;;;;;;;;4997423;28;20156;-83
2022/01/30 00:41:39;;;;;;;23.55;13.55;;;;;;;;;;5014988;28;20061;-76
2022/01/30 00:44:05;;;;;;;23.02;13.82;;;;;;;;;;4997633;28;20409;-81
2022/01/30 00:46:31;;;;;;;27.90;12.95;;;;;;;;;;4979393;28;20049;-73
2022/01/30 00:48:57;;;;;;;21.73;12.48;;;;;;;;;;4993749;28;20049;-74
2022/01/30 00:51:23;;;;;;;26.75;13.55;;;;;;;;;;5013521;28;20505;-81
2022/01/30 00:53:49;;;;;;;25.45;12.45;;;;;;;;;;5000169;28;20049;-75
2022/01/30 00:56:15;;;;;;;19.63;11.88;;;;;;;;;;4995830;28;20056;-79
2022/01/30 00:58:41;;;;;;;21.02;12.60;;;;;;;;;;4991716;28;20371;-79
2022/01/30 01:01:09;;;;;;;24.02;11.95;;;;;;;;;;5013794;28;20044;-83
2022/01/30 01:03:35;;;;;;;22.08;12.05;;;;;;;;;;4995037;28;20831;-78
2022/01/30 01:06:05;;;;;;;24.60;13.48;;;;;;;;;;5011669;28;20893;-76
2022/01/30 01:08:36;;;;;;;22.58;13.18;;;;;;;;;;4990310;28;20059;-82
2022/01/30 01:24:46;;;;;;;19.52;10.80;;;;;;;;;;4947296;28;20062;-78
2022/01/30 01:27:13;;;;;;;18.48;10.88;;;;;;;;;;4951945;28;20132;-76
2022/01/30 01:29:39;;;;;;;18.75;11.15;;;;;;;;;;4932409;28;20063;-79
2022/01/30 01:32:05;;;;;;;19.08;11.38;;;;;;;;;;4933460;28;20070;-67
2022/01/30 01:34:35;;;;;;;21.10;11.07;;;;;;;;;;4950898;28;20135;-72
2022/01/30 01:37:02;;;;;;;17.08;10.95;;;;;;;;;;4933990;28;21029;-67
2022/01/30 01:39:29;;;;;;;17.58;11.10;;;;;;;;;;4945410;28;20425;-75
2022/01/30 01:41:56;;;;;;;19.58;10.50;;;;;;;;;;4949815;28;20054;-69
2022/01/30 01:44:42;;;;;;;18.02;10.70;;;;;;;;;;4917119;28;20714;-77
2022/01/30 01:47:09;;;;;;;27.33;10.27;;;;;;;;;;4934414;28;20065;-73
2022/01/30 01:49:36;;;;;;;20.20;9.98;;;;;;;;;;4969412;28;20614;-83
2022/01/30 01:52:18;;;;;;;20.92;10.13;;;;;;;;;;4992863;28;20062;-74
2022/01/30 01:54:59;;;;;;;19.13;10.70;;;;;;;;;;4993844;28;20089;-79
2022/01/30 01:57:27;;;;;;;16.92;9.63;;;;;;;;;;4988353;28;20698;-76
2022/01/30 01:59:53;;;;;;;16.02;10.40;;;;;;;;;;4987479;28;20131;-73
2022/01/30 02:02:22;;;;;;;14.73;9.23;;;;;;;;;;4983014;28;20142;-74
2022/01/30 02:04:48;;;;;;;18.65;9.70;;;;;;;;;;5001122;28;20498;-77
2022/01/30 02:07:59;;;;;;;22.90;9.90;;;;;;;;;;4989434;28;20547;-74
2022/01/30 02:10:37;;;;;;;17.02;9.75;;;;;;;;;;4991580;28;20161;-80
2022/01/30 02:13:32;;;;;;;17.55;9.68;;;;;;;;;;5013975;28;20049;-71
2022/01/30 02:25:29;;;;;;;18.65;9.95;;;;;;;;;;4992472;28;20081;-81
2022/01/30 02:27:17;;;;;;;18.13;11.02;;;;;;;;;;4994641;28;20501;-79
2022/01/30 02:29:44;;;;;;;18.67;9.75;;;;;;;;;;5010800;28;20510;-77
2022/01/30 02:32:11;;;;;;;20.30;10.35;;;;;;;;;;4993240;28;20049;-75
2022/01/30 02:34:37;;;;;;;20.95;10.18;;;;;;;;;;5011319;28;20375;-79
2022/01/30 02:37:04;;;;;;;16.98;9.93;;;;;;;;;;5010146;28;20946;-68
2022/01/30 02:39:30;;;;;;;15.77;9.93;;;;;;;;;;5006630;28;20590;-71
2022/01/30 02:41:57;;;;;;;18.27;10.82;;;;;;;;;;5012036;28;20053;-78
2022/01/30 02:44:28;;;;;;;19.50;9.95;;;;;;;;;;5012434;28;20053;-79
2022/01/30 02:47:02;;;;;;;16.48;10.48;;;;;;;;;;4994350;28;20073;-78
2022/01/30 02:49:42;;;;;;;17.20;10.70;;;;;;;;;;5010111;28;20226;-72
2022/01/30 02:52:10;;;;;;;21.10;11.35;;;;;;;;;;4997110;28;20045;-77
2022/01/30 02:54:37;;;;;;;18.25;10.70;;;;;;;;;;5016102;28;20561;-80
2022/01/30 02:57:04;;;;;;;20.80;10.48;;;;;;;;;;4996400;28;20942;-66
2022/01/30 02:59:31;;;;;;;19.55;10.30;;;;;;;;;;5014897;28;20073;-68
2022/01/30 03:02:01;;;;;;;17.45;10.27;;;;;;;;;;5017582;28;20922;-69
2022/01/30 03:04:27;;;;;;;19.27;9.82;;;;;;;;;;5017051;28;20148;-67
2022/01/30 03:06:53;;;;;;;18.48;9.98;;;;;;;;;;4996710;28;20064;-77
2022/01/30 03:09:19;;;;;;;17.10;9.90;;;;;;;;;;5012451;28;20056;-80
2022/01/30 03:11:46;;;;;;;13.90;8.90;;;;;;;;;;4982804;28;20505;-76
2022/01/30 03:14:12;;;;;;;17.35;9.85;;;;;;;;;;5014750;28;20053;-82
2022/01/30 03:16:39;;;;;;;17.13;9.30;;;;;;;;;;5013958;28;20450;-80
2022/01/30 03:19:05;;;;;;;15.57;9.15;;;;;;;;;;5001976;28;20057;-66
2022/01/30 03:21:31;;;;;;;15.27;9.40;;;;;;;;;;5011029;28;20328;-74
2022/01/30 03:23:57;;;;;;;14.82;8.75;;;;;;;;;;5003375;28;20104;-76
2022/01/30 03:26:23;;;;;;;13.73;8.50;;;;;;;;;;4995401;28;20076;-78
2022/01/30 03:28:52;;;;;;;19.75;9.27;;;;;;;;;;5010753;28;20578;-75
2022/01/30 03:31:20;;;;;;;15.52;8.65;;;;;;;;;;5012709;28;20057;-74
2022/01/30 03:33:50;;;;;;;14.73;8.52;;;;;;;;;;4994801;28;20053;-74
2022/01/30 03:36:16;;;;;;;16.92;8.57;;;;;;;;;;5012583;28;20558;-82
2022/01/30 03:38:42;;;;;;;13.63;8.60;;;;;;;;;;5011435;28;20053;-75
2022/01/30 03:41:08;;;;;;;17.20;9.98;;;;;;;;;;5014599;28;20354;-75
2022/01/30 03:43:35;;;;;;;23.92;10.43;;;;;;;;;;4995849;28;20060;-70
2022/01/30 03:46:01;;;;;;;16.48;10.32;;;;;;;;;;5013034;28;20056;-78
2022/01/30 03:48:27;;;;;;;21.65;10.88;;;;;;;;;;5010006;28;20664;-78
2022/01/30 03:50:54;;;;;;;19.08;10.57;;;;;;;;;;5012849;28;20050;-81
2022/01/30 03:53:20;;;;;;;20.83;11.00;;;;;;;;;;4995987;28;20057;-80
2022/01/30 03:55:46;;;;;;;20.95;10.95;;;;;;;;;;5012499;28;20054;-78
2022/01/30 03:58:12;;;;;;;18.88;9.90;;;;;;;;;;4995347;28;20115;-79
2022/01/30 04:00:38;;;;;;;17.38;9.93;;;;;;;;;;5009488;28;20499;-79
2022/01/30 04:03:04;;;;;;;17.45;9.60;;;;;;;;;;5012700;28;20601;-68
2022/01/30 04:05:31;;;;;;;18.15;9.70;;;;;;;;;;5013664;28;20085;-73
2022/01/30 04:08:02;;;;;;;20.85;9.35;;;;;;;;;;5013445;28;20298;-72
2022/01/30 04:10:30;;;;;;;20.13;9.63;;;;;;;;;;4990866;28;20686;-69
2022/01/30 04:12:56;;;;;;;13.45;8.55;;;;;;;;;;5012487;28;20057;-76
2022/01/30 04:15:24;;;;;;;21.17;8.95;;;;;;;;;;5014269;28;20045;-76
2022/01/30 04:17:50;;;;;;;17.23;8.65;;;;;;;;;;5009714;28;20282;-76
2022/01/30 04:20:18;;;;;;;15.82;8.55;;;;;;;;;;4993218;28;20337;-75
2022/01/30 04:22:45;;;;;;;19.05;9.27;;;;;;;;;;4996291;28;20071;-78
2022/01/30 04:25:11;;;;;;;17.83;8.70;;;;;;;;;;5015348;28;20487;-81
2022/01/30 04:27:38;;;;;;;13.93;8.20;;;;;;;;;;5013063;28;20052;-75
2022/01/30 04:30:05;;;;;;;15.23;7.70;;;;;;;;;;5009460;28;20053;-82
2022/01/30 04:32:33;;;;;;;12.30;7.55;;;;;;;;;;5010231;28;20057;-68
2022/01/30 04:35:09;;;;;;;15.73;7.00;;;;;;;;;;5013427;28;20060;-76
2022/01/30 04:37:56;;;;;;;10.82;6.68;;;;;;;;;;4993285;28;20186;-84
2022/01/30 05:02:10;;;;;;;9.35;5.38;;;;;;;;;;4996425;28;20734;-74
2022/01/30 05:09:45;;;;;;;9.40;5.18;;;;;;;;;;5012158;28;20111;-82
2022/01/30 05:12:12;;;;;;;9.40;5.35;;;;;;;;;;5013622;28;20168;-76
2022/01/30 05:14:39;;;;;;;10.80;6.45;;;;;;;;;;5015203;28;20057;-75
2022/01/30 05:17:06;;;;;;;12.65;6.05;;;;;;;;;;4996548;28;20057;-69
2022/01/30 05:19:33;;;;;;;10.60;5.80;;;;;;;;;;5010949;28;20052;-67
2022/01/30 05:21:59;;;;;;;12.90;5.95;;;;;;;;;;5014880;28;20045;-82
2022/01/30 05:24:26;;;;;;;13.48;6.65;;;;;;;;;;5014365;28;20049;-76
2022/01/30 05:26:52;;;;;;;10.10;6.22;;;;;;;;;;4992045;28;20509;-69
2022/01/30 05:29:19;;;;;;;13.13;6.30;;;;;;;;;;5005925;28;20045;-83
2022/01/30 05:31:45;;;;;;;11.02;6.25;;;;;;;;;;5010854;28;20049;-82
2022/01/30 05:34:11;;;;;;;15.30;5.85;;;;;;;;;;4993757;28;21185;-73
2022/01/30 05:36:39;;;;;;;11.20;6.22;;;;;;;;;;5010718;28;20067;-82
2022/01/30 05:39:06;;;;;;;8.43;5.35;;;;;;;;;;5006663;28;20053;-81
2022/01/30 05:41:33;;;;;;;10.13;4.85;;;;;;;;;;5011136;28;20104;-81
2022/01/30 05:44:08;;;;;;;9.77;5.22;;;;;;;;;;4991271;28;20060;-76
2022/01/30 05:46:42;;;;;;;13.90;5.10;;;;;;;;;;5011282;28;20496;-68
2022/01/30 05:49:13;;;;;;;9.88;5.78;;;;;;;;;;5008285;28;20111;-81
2022/01/30 05:51:39;;;;;;;9.90;4.93;;;;;;;;;;5013401;28;20056;-80
2022/01/30 05:54:05;;;;;;;12.38;5.22;;;;;;;;;;5011358;28;21104;-68
2022/01/30 05:56:33;;;;;;;10.55;5.43;;;;;;;;;;5008546;28;20061;-71
2022/01/30 05:59:00;;;;;;;10.52;4.47;;;;;;;;;;5008658;28;20746;-75
2022/01/30 06:01:27;;;;;;;8.38;4.40;;;;;;;;;;4982914;28;20277;-75
2022/01/30 06:03:53;;;;;;;9.63;4.60;;;;;;;;;;5012358;28;20057;-77
2022/01/30 06:06:19;;;;;;;8.63;4.65;;;;;;;;;;5011975;28;20057;-80
2022/01/30 06:08:57;;;;;;;9.80;5.65;;;;;;;;;;5006786;28;20990;-80
2022/01/30 06:11:24;;;;;;;8.80;4.80;;;;;;;;;;5010179;28;20478;-78
2022/01/30 06:13:50;;;;;;;8.27;4.55;;;;;;;;;;5012182;28;20127;-68
2022/01/30 06:16:18;;;;;;;9.45;4.38;;;;;;;;;;5007634;28;20531;-76
2022/01/30 06:18:45;;;;;;;8.18;4.53;;;;;;;;;;4993937;28;20570;-77
2022/01/30 06:21:12;;;;;;;9.93;4.38;;;;;;;;;;5014341;28;20061;-82
2022/01/30 06:23:40;;;;;;;8.35;4.28;;;;;;;;;;5013434;28;20118;-81
2022/01/30 06:26:06;;;;;;;7.75;3.80;;;;;;;;;;5014516;28;20425;-80
2022/01/30 06:28:32;;;;;;;7.53;4.03;;;;;;;;;;5010539;28;20072;-77
2022/01/30 06:30:59;;;;;;;9.23;3.60;;;;;;;;;;5011478;28;20160;-75
2022/01/30 06:33:25;;;;;;;8.93;3.80;;;;;;;;;;4994977;28;20072;-70
2022/01/30 06:35:51;;;;;;;8.25;4.03;;;;;;;;;;5011184;28;20542;-81
2022/01/30 06:38:17;;;;;;;10.73;3.95;;;;;;;;;;4995279;28;20048;-77
2022/01/30 06:40:44;;;;;;;9.65;4.60;;;;;;;;;;5011666;28;20648;-82
2022/01/30 06:43:11;;;;;;;8.48;3.80;;;;;;;;;;5014026;28;20061;-75
2022/01/30 06:45:37;;;;;;;10.50;4.00;;;;;;;;;;5014377;28;20049;-80
2022/01/30 06:48:04;;;;;;;7.53;4.25;;;;;;;;;;5012502;28;20080;-76
2022/01/30 06:50:30;;;;;;;8.35;4.35;;;;;;;;;;4994370;28;20068;-77
2022/01/30 06:52:56;;;;;;;7.82;4.07;;;;;;;;;;4996212;28;20950;-73
2022/01/30 06:55:23;;;;;;;11.45;4.40;;;;;;;;;;5016265;28;20478;-67
2022/01/30 06:57:49;;;;;;;8.68;4.30;;;;;;;;;;5012523;28;20053;-78
2022/01/30 07:00:15;;;;;;;7.55;4.20;;;;;;;;;;4977733;28;20053;-75
2022/01/30 07:02:41;;;;;;;9.70;4.32;;;;;;;;;;5011872;28;20081;-83
2022/01/30 07:05:08;;;;;;;9.25;4.60;;;;;;;;;;5014839;28;20049;-84
2022/01/30 07:07:35;;;;;;;11.90;4.45;;;;;;;;;;5013481;28;20057;-70
2022/01/30 07:10:05;;;;;;;9.52;4.40;;;;;;;;;;5010165;28;20049;-77
2022/01/30 07:12:31;;;;;;;10.27;4.13;;;;;;;;;;5015175;28;20111;-67
2022/01/30 07:14:57;;;;;;;10.13;3.97;;;;;;;;;;5011981;28;20060;-77
2022/01/30 07:17:23;;;;;;;10.55;4.72;;;;;;;;;;5013536;28;20053;-73
2022/01/30 07:19:49;;;;;;;11.68;4.30;;;;;;;;;;4993951;28;20052;-75
2022/01/30 07:22:16;;;;;;;8.63;4.38;;;;;;;;;;5013819;28;20422;-76
2022/01/30 07:24:42;;;;;;;7.55;4.25;;;;;;;;;;5016178;28;20072;-70
2022/01/30 07:27:09;;;;;;;9.77;3.97;;;;;;;;;;5014609;28;20195;-77
2022/01/30 07:29:35;;;;;;;8.27;4.57;;;;;;;;;;5013861;28;20077;-78
2022/01/30 07:32:02;;;;;;;9.07;5.30;;;;;;;;;;4995287;28;20057;-77
2022/01/30 07:34:28;;;;;;;10.90;4.38;;;;;;;;;;4996221;28;20098;-73
2022/01/30 07:36:57;;;;;;;8.98;4.80;;;;;;;;;;4994617;28;20056;-69
2022/01/30 07:39:28;;;;;;;9.57;4.40;;;;;;;;;;5010063;28;20096;-83
2022/01/30 07:41:55;;;;;;;9.48;4.60;;;;;;;;;;5011997;28;20481;-69
2022/01/30 07:44:21;;;;;;;9.40;4.85;;;;;;;;;;5014826;28;20568;-74
2022/01/30 07:46:48;;;;;;;9.77;4.60;;;;;;;;;;5014857;28;20246;-82
2022/01/30 07:49:14;;;;;;;8.60;4.45;;;;;;;;;;5010309;28;20061;-83
2022/01/30 07:51:40;;;;;;;13.05;4.65;;;;;;;;;;4997050;28;20057;-75
2022/01/30 07:54:06;;;;;;;15.23;4.90;;;;;;;;;;5014140;28;20053;-78
2022/01/30 07:56:32;;;;;;;7.78;4.00;;;;;;;;;;4998419;28;20056;-79
2022/01/30 07:58:58;;;;;;;10.18;4.57;;;;;;;;;;4992912;28;20057;-84
2022/01/30 08:01:24;;;;;;;12.52;4.80;;;;;;;;;;5014584;28;20056;-80
2022/01/30 08:03:50;;;;;;;9.07;4.82;;;;;;;;;;5014375;28;20064;-75
2022/01/30 08:06:16;;;;;;;13.23;4.20;;;;;;;;;;4994925;28;20173;-82
2022/01/30 08:08:43;;;;;;;12.13;4.07;;;;;;;;;;5009811;28;20502;-78
2022/01/30 08:11:15;;;;;;;10.10;3.75;;;;;;;;;;5014298;28;20450;-77
2022/01/30 08:13:43;;;;;;;8.38;4.57;;;;;;;;;;5013184;28;20794;-74
2022/01/30 08:16:10;;;;;;;13.43;4.72;;;;;;;;;;5013548;28;20050;-75
2022/01/30 08:18:38;;;;;;;12.40;5.18;;;;;;;;;;5011073;28;20053;-77
2022/01/30 08:21:05;;;;;;;14.75;6.35;;;;;;;;;;5012884;28;20056;-77
2022/01/30 08:23:34;;;;;;;13.10;6.47;;;;;;;;;;4994191;28;20120;-75
2022/01/30 08:26:01;;;;;;;13.93;6.43;;;;;;;;;;4992102;28;20049;-80
2022/01/30 08:28:28;;;;;;;14.77;6.47;;;;;;;;;;5009287;28;20057;-75
2022/01/30 08:30:55;;;;;;;12.32;6.00;;;;;;;;;;4996369;28;20088;-76
2022/01/30 08:33:21;;;;;;;15.48;6.18;;;;;;;;;;5016755;28;20435;-79
2022/01/30 08:35:49;;;;;;;10.30;5.35;;;;;;;;;;5015266;28;20053;-81
2022/01/30 08:38:18;;;;;;;11.88;5.55;;;;;;;;;;4996356;28;20156;-80
2022/01/30 08:40:48;;;;;;;12.60;5.28;;;;;;;;;;4994822;28;20060;-80
2022/01/30 08:43:14;;;;;;;18.48;7.18;;;;;;;;;;5011507;28;20140;-76
2022/01/30 08:45:42;;;;;;;16.35;6.57;;;;;;;;;;4998645;28;20056;-77
2022/01/30 08:48:08;;;;;;;12.80;6.07;;;;;;;;;;4994133;28;20977;-74
2022/01/30 08:50:35;;;;;;;13.18;4.57;;;;;;;;;;5013165;28;20095;-79
2022/01/30 08:53:02;;;;;;;13.30;5.53;;;;;;;;;;5011763;28;20049;-77
2022/01/30 08:55:29;;;;;;;10.02;4.85;;;;;;;;;;4993885;28;20276;-79
2022/01/30 08:57:57;;;;;;;8.93;4.38;;;;;;;;;;5010685;28;20054;-79
2022/01/30 09:00:25;;;;;;;9.80;4.68;;;;;;;;;;5010021;28;20706;-78
2022/01/30 09:02:51;;;;;;;12.95;4.75;;;;;;;;;;5012378;28;20056;-78
2022/01/30 09:05:18;;;;;;;9.38;4.85;;;;;;;;;;5007678;28;21103;-77
2022/01/30 09:07:44;;;;;;;7.47;4.38;;;;;;;;;;5009843;28;20989;-80
2022/01/30 09:10:11;;;;;;;15.20;4.70;;;;;;;;;;5012197;28;21362;-82
2022/01/30 09:12:38;;;;;;;11.52;4.55;;;;;;;;;;5013096;28;20049;-76
2022/01/30 09:15:07;;;;;;;9.32;5.30;;;;;;;;;;5011679;28;20049;-75
2022/01/30 09:17:33;;;;;;;12.70;5.90;;;;;;;;;;5010965;28;20731;-79
2022/01/30 09:20:00;;;;;;;16.92;5.78;;;;;;;;;;4993051;28;20073;-77
2022/01/30 09:22:26;;;;;;;12.70;6.05;;;;;;;;;;5012763;28;20499;-76
2022/01/30 09:24:53;;;;;;;10.95;5.80;;;;;;;;;;4993774;28;20579;-74
2022/01/30 09:27:19;;;;;;;11.10;5.97;;;;;;;;;;4994410;28;20083;-77
2022/01/30 09:29:45;;;;;;;11.60;5.82;;;;;;;;;;5006769;28;20419;-78
2022/01/30 09:32:12;;;;;;;8.10;5.43;;;;;;;;;;5010433;28;20153;-78
2022/01/30 09:34:38;;;;;;;11.13;5.28;;;;;;;;;;4993660;28;20064;-75
2022/01/30 09:37:06;;;;;;;9.55;5.55;;;;;;;;;;5011594;28;20084;-78
2022/01/30 09:39:33;;;;;;;12.85;5.30;;;;;;;;;;4992727;28;20065;-78
2022/01/30 09:42:00;;;;;;;11.82;5.55;;;;;;;;;;5012202;28;20053;-78
2022/01/30 09:44:27;;;;;;;8.80;5.05;;;;;;;;;;5013771;28;20118;-77
2022/01/30 09:46:53;;;;;;;7.82;4.53;;;;;;;;;;5013214;28;20709;-78
2022/01/30 09:49:24;;;;;;;11.95;4.00;;;;;;;;;;5011421;28;20055;-79
2022/01/30 09:51:51;;;;;;;12.73;4.72;;;;;;;;;;4995216;28;20892;-78
2022/01/30 09:54:18;;;;;;;12.88;5.97;;;;;;;;;;4994484;28;20229;-77
2022/01/30 09:56:44;;;;;;;14.73;5.22;;;;;;;;;;4994376;28;20053;-81
2022/01/30 09:59:11;;;;;;;21.90;6.10;;;;;;;;;;4990894;28;20053;-78
2022/01/30 10:01:37;;;;;;;10.55;4.70;;;;;;;;;;5012619;28;20049;-78
2022/01/30 10:04:06;;;;;;;11.82;5.80;;;;;;;;;;4992221;28;20129;-78
2022/01/30 10:06:53;;;;;;;15.68;5.28;;;;;;;;;;4991639;28;20050;-80
2022/01/30 10:09:24;;;;;;;8.60;5.72;;;;;;;;;;5009080;28;20506;-76
2022/01/30 10:12:01;;;;;;;11.70;5.30;;;;;;;;;;5011368;28;20056;-74
2022/01/30 10:14:27;;;;;;;9.35;5.60;;;;;;;;;;5007632;28;20123;-78
2022/01/30 10:16:54;;;;;;;12.52;5.53;;;;;;;;;;5006352;28;20049;-80
2022/01/30 10:19:24;;;;;;;11.73;5.05;;;;;;;;;;5008472;28;20104;-78
2022/01/30 10:22:05;;;;;;;11.05;4.60;;;;;;;;;;5012804;28;20487;-76
2022/01/30 10:24:42;;;;;;;7.55;4.18;;;;;;;;;;5011209;28;20160;-80
2022/01/30 10:27:23;;;;;;;7.75;3.80;;;;;;;;;;5012321;28;20160;-78
2022/01/30 10:29:57;;;;;;;7.80;4.20;;;;;;;;;;5005855;28;20059;-75
2022/01/30 10:32:24;;;;;;;10.10;3.92;;;;;;;;;;4989989;28;20060;-79
2022/01/30 10:35:08;;;;;;;12.60;4.82;;;;;;;;;;4981824;28;20079;-73
2022/01/30 10:37:38;;;;;;;8.97;4.53;;;;;;;;;;5009586;28;20664;-74
2022/01/30 10:40:13;;;;;;;12.88;5.15;;;;;;;;;;4987704;28;20689;-76
2022/01/30 10:42:44;;;;;;;9.30;4.22;;;;;;;;;;4992825;28;20057;-78
2022/01/30 10:45:15;;;;;;;7.82;4.20;;;;;;;;;;5010674;28;20060;-75
2022/01/30 10:47:43;;;;;;;10.35;4.30;;;;;;;;;;5009066;28;20056;-74
2022/01/30 10:50:16;;;;;;;13.10;4.32;;;;;;;;;;5005846;28;20049;-79
2022/01/30 10:53:02;;;;;;;8.88;4.38;;;;;;;;;;4993694;28;20060;-80
2022/01/30 10:55:36;;;;;;;6.18;3.92;;;;;;;;;;5012273;28;20080;-76
2022/01/30 10:58:04;;;;;;;7.55;4.40;;;;;;;;;;5009555;28;20056;-78
2022/01/30 11:00:47;;;;;;;7.38;3.85;;;;;;;;;;4990246;28;20045;-75
2022/01/30 11:03:51;;;;;;;10.40;4.45;;;;;;;;;;5014823;28;20609;-80
2022/01/30 11:06:18;;;;;;;11.35;4.82;;;;;;;;;;4993475;28;20073;-76
2022/01/30 11:08:48;;;;;;;7.82;4.78;;;;;;;;;;5010904;28;20049;-77
2022/01/30 11:11:33;;;;;;;9.13;4.70;;;;;;;;;;4991229;28;20764;-76
2022/01/30 11:19:19;;;;;;;9.80;5.65;;;;;;;;;;5010978;28;20049;-77
2022/01/30 11:21:51;;;;;;;17.08;7.53;;;;;;;;;;4998935;28;21070;-78
2022/01/30 11:24:21;;;;;;;10.88;7.25;;;;;;;;;;5012997;28;20053;-80
2022/01/30 11:26:48;;;;;;;12.30;8.25;;;;;;;;;;5010962;28;20056;-76
2022/01/30 11:29:17;;;;;;;14.32;7.10;;;;;;;;;;5013153;28;20099;-77
2022/01/30 11:31:44;;;;;;;14.88;8.95;;;;;;;;;;5013351;28;20534;-76
2022/01/30 11:34:10;;;;;;;13.05;8.77;;;;;;;;;;5011350;28;20078;-76
2022/01/30 11:36:43;;;;;;;18.90;10.07;;;;;;;;;;4995163;28;20485;-78
2022/01/30 11:39:22;;;;;;;17.13;9.32;;;;;;;;;;4993306;28;20052;-78
2022/01/30 11:42:06;;;;;;;20.60;10.68;;;;;;;;;;5013495;28;20041;-78
2022/01/30 11:44:33;;;;;;;14.82;9.43;;;;;;;;;;5008532;28;20751;-76
2022/01/30 11:46:59;;;;;;;13.23;7.03;;;;;;;;;;4994022;28;20144;-76
2022/01/30 11:49:42;;;;;;;9.50;5.68;;;;;;;;;;5011914;28;20089;-77
2022/01/30 11:52:11;;;;;;;9.00;5.40;;;;;;;;;;5016345;28;20249;-77
2022/01/30 11:54:51;;;;;;;8.20;4.40;;;;;;;;;;5015232;28;20044;-78
2022/01/30 11:57:23;;;;;;;9.30;5.30;;;;;;;;;;5011938;28;20939;-76
2022/01/30 11:59:52;;;;;;;7.82;4.53;;;;;;;;;;4992793;28;20405;-76
2022/01/30 12:02:25;;;;;;;9.88;5.88;;;;;;;;;;4995204;28;20381;-76
2022/01/30 12:04:56;;;;;;;8.98;5.40;;;;;;;;;;5013580;28;20045;-74
2022/01/30 12:07:36;;;;;;;9.50;5.15;;;;;;;;;;5008866;28;20609;-74
2022/01/30 12:12:55;;;;;;;9.70;5.38;;;;;;;;;;5014345;28;20400;-78
2022/01/30 12:15:39;;;;;;;;;;;;;;;;;;5013087;28;20385;-72
2022/01/30 12:18:07;;;;;;;7.60;4.85;;;;;;;;;;5013379;28;19932;-75
2022/01/30 12:21:08;;;;;;;6.25;4.28;;;;;;;;;;4994610;28;20052;-79
2022/01/30 12:23:41;;;;;;;11.43;4.40;;;;;;;;;;4996351;28;20051;-75
2022/01/30 12:26:15;;;;;;;9.35;4.25;;;;;;;;;;5013321;28;20049;-75
2022/01/30 12:28:46;;;;;;;10.63;5.05;;;;;;;;;;5013079;28;20053;-76
2022/01/30 12:31:38;;;;;;;7.22;4.10;;;;;;;;;;4996539;28;20056;-76
2022/01/30 12:34:08;;;;;;;8.73;3.85;;;;;;;;;;4978408;28;20667;-76
2022/01/30 12:36:37;;;;;;;9.15;5.05;;;;;;;;;;4991856;28;20503;-73
2022/01/30 12:39:12;;;;;;;9.10;5.32;;;;;;;;;;4991184;28;20050;-72
2022/01/30 12:41:39;;;;;;;9.30;5.78;;;;;;;;;;4993132;28;20055;-77
2022/01/30 12:44:07;;;;;;;11.32;5.97;;;;;;;;;;4990496;28;20092;-71
2022/01/30 12:46:39;;;;;;;8.88;5.45;;;;;;;;;;4983931;28;20143;-73
2022/01/30 12:49:10;;;;;;;12.45;5.35;;;;;;;;;;4967258;28;20503;-75
2022/01/30 12:51:37;;;;;;;8.68;5.18;;;;;;;;;;4971167;28;20529;-74
2022/01/30 12:54:05;;;;;;;8.80;5.20;;;;;;;;;;4992362;28;20136;-75
2022/01/30 12:56:32;;;;;;;13.88;6.10;;;;;;;;;;4977968;28;20674;-74
2022/01/30 12:59:06;;;;;;;9.02;4.38;;;;;;;;;;4969075;28;20061;-76
2022/01/30 13:01:41;;;;;;;11.10;4.78;;;;;;;;;;4992603;28;20096;-74
2022/01/30 13:04:19;;;;;;;16.00;5.55;;;;;;;;;;4974847;28;20679;-77
2022/01/30 13:06:51;;;;;;;11.73;5.88;;;;;;;;;;4988270;28;21389;-74
2022/01/30 13:09:19;;;;;;;12.30;6.38;;;;;;;;;;4983145;28;20060;-78
2022/01/30 13:11:45;;;;;;;12.10;5.97;;;;;;;;;;4986378;28;20607;-73
2022/01/30 13:14:12;;;;;;;15.73;6.18;;;;;;;;;;4989475;28;21344;-75
2022/01/30 13:16:42;;;;;;;17.95;8.38;;;;;;;;;;4963974;28;20048;-77
2022/01/30 13:19:11;;;;;;;9.80;5.82;;;;;;;;;;4965862;28;21315;-76
2022/01/30 13:21:39;;;;;;;10.48;5.43;;;;;;;;;;4971832;28;20088;-75
2022/01/30 13:24:07;;;;;;;12.10;6.72;;;;;;;;;;4970485;28;20732;-78
2022/01/30 13:26:44;;;;;;;14.52;6.85;;;;;;;;;;4972133;28;20141;-74
2022/01/30 13:29:21;;;;;;;11.93;5.68;;;;;;;;;;4967838;28;20289;-75
2022/01/30 13:31:49;;;;;;;11.00;5.13;;;;;;;;;;4992049;28;22042;-76
2022/01/30 13:34:28;;;;;;;11.02;5.85;;;;;;;;;;4985613;28;20065;-77
2022/01/30 13:37:09;;;;;;;11.00;5.80;;;;;;;;;;5002352;28;20052;-75
2022/01/30 13:42:37;;;;;;;11.85;5.10;;;;;;;;;;5011248;28;20077;-79
2022/01/30 13:48:02;;;;;;;6.95;4.63;;;;;;;;;;5006484;28;20049;-74
2022/01/30 13:50:34;;;;;;;11.23;4.97;;;;;;;;;;4986307;28;20738;-74
2022/01/30 13:53:03;;;;;;;10.70;4.80;;;;;;;;;;4991039;28;20618;-76
2022/01/30 13:55:31;;;;;;;8.18;5.00;;;;;;;;;;4992290;28;20088;-70
2022/01/30 13:57:59;;;;;;;10.88;4.40;;;;;;;;;;5012238;28;20115;-76
2022/01/30 14:00:34;;;;;;;10.75;4.70;;;;;;;;;;4977739;28;20131;-68
2022/01/30 14:03:02;;;;;;;11.60;4.93;;;;;;;;;;4990808;28;20064;-74
2022/01/30 14:05:46;;;;;;;8.25;4.85;;;;;;;;;;4989695;28;20054;-67
2022/01/30 14:08:16;;;;;;;14.52;4.80;;;;;;;;;;4989124;28;20072;-75
2022/01/30 14:10:43;;;;;;;6.95;4.30;;;;;;;;;;5003763;28;20084;-77
2022/01/30 14:13:20;;;;;;;9.80;4.40;;;;;;;;;;5008133;28;20084;-75
2022/01/30 14:16:05;;;;;;;7.55;4.18;;;;;;;;;;5006446;28;20513;-76
2022/01/30 14:18:35;;;;;;;7.68;4.00;;;;;;;;;;5000829;28;20588;-75
2022/01/30 14:21:14;;;;;;;9.60;3.97;;;;;;;;;;4988128;28;20057;-78
2022/01/30 14:23:39;;;;;;;8.32;3.88;;;;;;;;;;4993534;28;20622;-80
2022/01/30 14:26:22;;;;;;;6.13;3.22;;;;;;;;;;4993529;28;20429;-68
2022/01/30 14:29:12;;;;;;;7.35;4.22;;;;;;;;;;4990223;28;20059;-81
2022/01/30 14:31:49;;;;;;;6.85;4.00;;;;;;;;;;4993314;28;20149;-74
2022/01/30 14:34:17;;;;;;;7.60;3.53;;;;;;;;;;5009013;28;20064;-76
2022/01/30 14:36:45;;;;;;;6.78;3.50;;;;;;;;;;5006230;28;20053;-78
2022/01/30 14:39:12;;;;;;;9.48;4.30;;;;;;;;;;5007837;28;20405;-75
2022/01/30 14:41:39;;;;;;;6.80;3.47;;;;;;;;;;4995355;28;20279;-79
2022/01/30 14:44:05;;;;;;;5.45;3.25;;;;;;;;;;5011353;28;20848;-71
2022/01/30 14:46:32;;;;;;;6.22;3.00;;;;;;;;;;5008978;28;21195;-74
2022/01/30 14:48:59;;;;;;;6.25;3.30;;;;;;;;;;5002214;28;20062;-74
2022/01/30 14:51:25;;;;;;;6.40;2.97;;;;;;;;;;5009726;28;20056;-71
2022/01/30 14:53:53;;;;;;;7.75;3.50;;;;;;;;;;4993366;28;21225;-71
2022/01/30 14:56:22;;;;;;;7.15;3.40;;;;;;;;;;4993940;28;20057;-69
2022/01/30 14:58:48;;;;;;;5.55;3.65;;;;;;;;;;4986527;28;20091;-78
2022/01/30 15:01:14;;;;;;;8.13;3.80;;;;;;;;;;5007933;28;20061;-75
2022/01/30 15:03:40;;;;;;;6.00;3.65;;;;;;;;;;4993351;28;21039;-80
2022/01/30 15:06:06;;;;;;;5.38;3.10;;;;;;;;;;5009732;28;20459;-79
2022/01/30 15:08:32;;;;;;;7.03;3.10;;;;;;;;;;5006379;28;20670;-79
2022/01/30 15:10:59;;;;;;;8.52;2.90;;;;;;;;;;5006752;28;20783;-71
2022/01/30 15:13:25;;;;;;;6.93;3.03;;;;;;;;;;5008434;28;20075;-70
2022/01/30 15:15:52;;;;;;;4.45;2.75;;;;;;;;;;5008790;28;21493;-75
2022/01/30 15:18:30;;;;;;;6.47;2.40;;;;;;;;;;4989227;28;20378;-76
2022/01/30 15:20:57;;;;;;;9.38;2.30;;;;;;;;;;4991204;28;20060;-67
2022/01/30 15:23:25;;;;;;;5.25;2.72;;;;;;;;;;4989520;28;20049;-76
2022/01/30 15:25:51;;;;;;;6.75;2.80;;;;;;;;;;4989335;28;20542;-73
2022/01/30 15:28:17;;;;;;;6.25;2.30;;;;;;;;;;4990853;28;20155;-78
2022/01/30 15:30:44;;;;;;;5.13;2.50;;;;;;;;;;4989037;28;20334;-72
2022/01/30 15:33:11;;;;;;;6.68;2.25;;;;;;;;;;5009348;28;20427;-79
2022/01/30 15:35:39;;;;;;;6.05;2.70;;;;;;;;;;5007624;28;20241;-78
2022/01/30 15:38:06;;;;;;;4.45;2.55;;;;;;;;;;5008389;28;20115;-73
2022/01/30 15:40:32;;;;;;;5.50;2.28;;;;;;;;;;5004480;28;20524;-72
2022/01/30 15:43:00;;;;;;;11.50;2.38;;;;;;;;;;4992140;28;20060;-77
2022/01/30 15:50:39;;;;;;;3.85;2.20;;;;;;;;;;5004152;28;20061;-74
2022/01/30 15:53:05;;;;;;;5.05;2.50;;;;;;;;;;5010684;28;21352;-78
2022/01/30 15:55:31;;;;;;;8.70;5.20;;;;;;;;;;5007758;28;20108;-73
2022/01/30 15:57:58;;;;;;;7.80;2.95;;;;;;;;;;5006506;28;20057;-80